Terminal Aerodrome Forecast
Issued by NWS

Home | Current Version | Previous Version | Text Only | Print | Product List | Glossary On
Versions: 1 2 3 4 5 6 7 8 9 10 11 12
000
FTUS43 KAPX 191120
TAFAPN
TAF
KAPN 191120Z 1912/2012 27009KT P6SM SCT250
     FM191500 26011G19KT P6SM FEW250
     FM200100 26007KT P6SM SKC=

USA.gov is the U.S. government's official web portal to all federal, state and local government web resources and services.